sensor_id;sensor_type;location;lat;lon;timestamp;pressure;altitude;pressure_sealevel;temperature;humidity
56831;BME280;42713;42.676;23.352;2023-03-04T00:01:49;94801.47;;;5.85;81.57
56831;BME280;42713;42.676;23.352;2023-03-04T00:04:15;94802.66;;;5.89;81.85
56831;BME280;42713;42.676;23.352;2023-03-04T00:06:41;94801.81;;;5.96;81.06
56831;BME280;42713;42.676;23.352;2023-03-04T00:09:06;94796.59;;;6.02;80.95
56831;BME280;42713;42.676;23.352;2023-03-04T00:11:33;94800.56;;;6.05;80.67
56831;BME280;42713;42.676;23.352;2023-03-04T00:13:59;94802.97;;;6.06;80.17
56831;BME280;42713;42.676;23.352;2023-03-04T00:16:24;94794.59;;;6.04;79.87
56831;BME280;42713;42.676;23.352;2023-03-04T00:18:56;94790.63;;;6.02;80.22
56831;BME280;42713;42.676;23.352;2023-03-04T00:21:22;94798.97;;;6.04;79.88
56831;BME280;42713;42.676;23.352;2023-03-04T00:23:48;94784.63;;;5.95;80.15
56831;BME280;42713;42.676;23.352;2023-03-04T00:26:14;94784.06;;;5.92;80.81
56831;BME280;42713;42.676;23.352;2023-03-04T00:28:39;94788.22;;;5.93;81.16
56831;BME280;42713;42.676;23.352;2023-03-04T00:31:06;94784.44;;;5.96;80.48
56831;BME280;42713;42.676;23.352;2023-03-04T00:33:32;94780.69;;;5.85;81.09
56831;BME280;42713;42.676;23.352;2023-03-04T00:35:57;94780.53;;;5.80;81.45
56831;BME280;42713;42.676;23.352;2023-03-04T00:38:23;94771.03;;;5.67;81.31
56831;BME280;42713;42.676;23.352;2023-03-04T00:40:48;94772.31;;;5.51;81.88
56831;BME280;42713;42.676;23.352;2023-03-04T00:43:14;94784.94;;;5.48;82.32
56831;BME280;42713;42.676;23.352;2023-03-04T00:45:39;94785.72;;;5.48;82.03
56831;BME280;42713;42.676;23.352;2023-03-04T00:48:05;94777.28;;;5.53;82.74
56831;BME280;42713;42.676;23.352;2023-03-04T00:50:30;94773.69;;;5.54;81.88
56831;BME280;42713;42.676;23.352;2023-03-04T00:52:56;94775.28;;;5.55;82.16
56831;BME280;42713;42.676;23.352;2023-03-04T00:55:23;94773.28;;;5.57;81.45
56831;BME280;42713;42.676;23.352;2023-03-04T00:57:49;94777.47;;;5.58;82.17
56831;BME280;42713;42.676;23.352;2023-03-04T01:00:15;94774.81;;;5.65;81.51
56831;BME280;42713;42.676;23.352;2023-03-04T01:02:40;94774.19;;;5.69;81.16
56831;BME280;42713;42.676;23.352;2023-03-04T01:05:06;94769.22;;;5.68;81.18
56831;BME280;42713;42.676;23.352;2023-03-04T01:07:32;94774.00;;;5.71;81.17
56831;BME280;42713;42.676;23.352;2023-03-04T01:09:58;94775.16;;;5.75;81.23
56831;BME280;42713;42.676;23.352;2023-03-04T01:12:23;94776.56;;;5.78;80.47
56831;BME280;42713;42.676;23.352;2023-03-04T01:14:49;94766.53;;;5.81;80.52
56831;BME280;42713;42.676;23.352;2023-03-04T01:17:14;94769.88;;;5.88;80.17
56831;BME280;42713;42.676;23.352;2023-03-04T01:19:39;94762.84;;;5.89;79.84
56831;BME280;42713;42.676;23.352;2023-03-04T01:22:05;94762.84;;;5.89;79.99
56831;BME280;42713;42.676;23.352;2023-03-04T01:24:30;94768.06;;;5.89;79.90
56831;BME280;42713;42.676;23.352;2023-03-04T01:26:56;94761.06;;;5.89;79.41
56831;BME280;42713;42.676;23.352;2023-03-04T01:29:21;94760.47;;;5.87;78.70
56831;BME280;42713;42.676;23.352;2023-03-04T01:31:47;94748.47;;;5.86;79.12
56831;BME280;42713;42.676;23.352;2023-03-04T01:34:12;94759.47;;;5.88;79.25
56831;BME280;42713;42.676;23.352;2023-03-04T01:36:38;94753.47;;;5.88;79.32
56831;BME280;42713;42.676;23.352;2023-03-04T01:39:04;94742.13;;;5.82;79.54
56831;BME280;42713;42.676;23.352;2023-03-04T01:41:30;94742.38;;;5.74;79.27
56831;BME280;42713;42.676;23.352;2023-03-04T01:43:57;94744.78;;;5.75;79.35
56831;BME280;42713;42.676;23.352;2023-03-04T01:46:25;94737.34;;;5.79;79.95
56831;BME280;42713;42.676;23.352;2023-03-04T01:48:51;94734.75;;;5.79;79.71
56831;BME280;42713;42.676;23.352;2023-03-04T01:51:19;94733.38;;;5.76;79.09
56831;BME280;42713;42.676;23.352;2023-03-04T01:53:47;94735.16;;;5.76;78.98
56831;BME280;42713;42.676;23.352;2023-03-04T01:56:33;94731.16;;;5.80;78.61
56831;BME280;42713;42.676;23.352;2023-03-04T02:01:32;94731.44;;;5.65;79.08
56831;BME280;42713;42.676;23.352;2023-03-04T02:03:58;94739.63;;;5.69;79.07
56831;BME280;42713;42.676;23.352;2023-03-04T02:06:24;94737.44;;;5.66;79.15
56831;BME280;42713;42.676;23.352;2023-03-04T02:08:49;94737.03;;;5.69;78.85
56831;BME280;42713;42.676;23.352;2023-03-04T02:11:15;94734.00;;;5.72;78.93
56831;BME280;42713;42.676;23.352;2023-03-04T02:13:40;94723.97;;;5.75;79.04
56831;BME280;42713;42.676;23.352;2023-03-04T02:16:06;94729.59;;;5.72;78.59
56831;BME280;42713;42.676;23.352;2023-03-04T02:18:31;94732.56;;;5.76;78.45
56831;BME280;42713;42.676;23.352;2023-03-04T02:21:22;94726.38;;;5.77;79.07
56831;BME280;42713;42.676;23.352;2023-03-04T02:26:43;94723.53;;;5.79;78.33
56831;BME280;42713;42.676;23.352;2023-03-04T02:29:13;94727.97;;;5.78;78.66
56831;BME280;42713;42.676;23.352;2023-03-04T02:31:41;94718.78;;;5.75;78.18
56831;BME280;42713;42.676;23.352;2023-03-04T02:34:13;94726.38;;;5.77;78.07
56831;BME280;42713;42.676;23.352;2023-03-04T02:36:40;94731.16;;;5.80;78.63
56831;BME280;42713;42.676;23.352;2023-03-04T02:41:48;94715.34;;;5.82;78.24
56831;BME280;42713;42.676;23.352;2023-03-04T02:46:41;94708.34;;;5.82;78.17
56831;BME280;42713;42.676;23.352;2023-03-04T02:49:07;94719.31;;;5.84;77.74
56831;BME280;42713;42.676;23.352;2023-03-04T02:51:32;94711.88;;;5.88;77.65
56831;BME280;42713;42.676;23.352;2023-03-04T02:53:58;94710.31;;;5.87;77.45
56831;BME280;42713;42.676;23.352;2023-03-04T02:56:23;94713.09;;;5.85;77.93
56831;BME280;42713;42.676;23.352;2023-03-04T02:58:49;94708.91;;;5.84;78.04
56831;BME280;42713;42.676;23.352;2023-03-04T03:01:14;94705.75;;;5.82;77.79
56831;BME280;42713;42.676;23.352;2023-03-04T03:03:40;94709.72;;;5.85;77.91
56831;BME280;42713;42.676;23.352;2023-03-04T03:06:05;94702.19;;;5.76;77.27
56831;BME280;42713;42.676;23.352;2023-03-04T03:08:31;94710.00;;;5.76;77.20
56831;BME280;42713;42.676;23.352;2023-03-04T03:10:56;94711.34;;;5.79;77.75
56831;BME280;42713;42.676;23.352;2023-03-04T03:13:22;94719.38;;;5.78;77.13
56831;BME280;42713;42.676;23.352;2023-03-04T03:15:47;94725.59;;;5.76;77.25
56831;BME280;42713;42.676;23.352;2023-03-04T03:18:13;94719.38;;;5.78;77.16
56831;BME280;42713;42.676;23.352;2023-03-04T03:20:38;94715.19;;;5.76;77.74
56831;BME280;42713;42.676;23.352;2023-03-04T03:23:04;94722.16;;;5.76;77.91
56831;BME280;42713;42.676;23.352;2023-03-04T03:25:29;94718.56;;;5.77;77.84
56831;BME280;42713;42.676;23.352;2023-03-04T03:27:55;94716.97;;;5.76;77.53
56831;BME280;42713;42.676;23.352;2023-03-04T03:30:20;94713.16;;;5.79;77.63
56831;BME280;42713;42.676;23.352;2023-03-04T03:32:46;94707.94;;;5.79;78.26
56831;BME280;42713;42.676;23.352;2023-03-04T03:35:11;94704.34;;;5.80;77.65
56831;BME280;42713;42.676;23.352;2023-03-04T03:37:37;94706.16;;;5.79;77.29
56831;BME280;42713;42.676;23.352;2023-03-04T03:40:03;94703.56;;;5.79;77.38
56831;BME280;42713;42.676;23.352;2023-03-04T03:42:28;94706.94;;;5.80;77.85
56831;BME280;42713;42.676;23.352;2023-03-04T03:44:54;94700.38;;;5.77;77.52
56831;BME280;42713;42.676;23.352;2023-03-04T03:47:20;94698.19;;;5.74;77.70
56831;BME280;42713;42.676;23.352;2023-03-04T03:49:46;94701.97;;;5.78;77.54
56831;BME280;42713;42.676;23.352;2023-03-04T03:52:11;94706.38;;;5.78;77.60
56831;BME280;42713;42.676;23.352;2023-03-04T03:54:37;94703.97;;;5.76;77.59
56831;BME280;42713;42.676;23.352;2023-03-04T03:57:02;94697.41;;;5.73;78.36
56831;BME280;42713;42.676;23.352;2023-03-04T03:59:28;94695.59;;;5.74;78.19
56831;BME280;42713;42.676;23.352;2023-03-04T04:01:53;94689.44;;;5.68;77.66
56831;BME280;42713;42.676;23.352;2023-03-04T04:04:19;94688.56;;;5.56;78.19
56831;BME280;42713;42.676;23.352;2023-03-04T04:06:44;94689.78;;;5.53;78.20
56831;BME280;42713;42.676;23.352;2023-03-04T04:09:09;94684.56;;;5.53;78.31
56831;BME280;42713;42.676;23.352;2023-03-04T04:11:35;94689.59;;;5.48;78.53
56831;BME280;42713;42.676;23.352;2023-03-04T04:14:01;94694.00;;;5.48;78.74
56831;BME280;42713;42.676;23.352;2023-03-04T04:16:26;94688.00;;;5.47;79.37
56831;BME280;42713;42.676;23.352;2023-03-04T04:18:52;94689.38;;;5.50;79.20
56831;BME280;42713;42.676;23.352;2023-03-04T04:21:17;94679.41;;;5.47;78.89
56831;BME280;42713;42.676;23.352;2023-03-04T04:23:43;94684.00;;;5.51;79.10
56831;BME280;42713;42.676;23.352;2023-03-04T04:26:08;94689.19;;;5.51;79.37
56831;BME280;42713;42.676;23.352;2023-03-04T04:28:34;94692.56;;;5.52;79.27
56831;BME280;42713;42.676;23.352;2023-03-04T04:30:59;94685.34;;;5.54;79.37
56831;BME280;42713;42.676;23.352;2023-03-04T04:33:25;94691.56;;;5.53;79.03
56831;BME280;42713;42.676;23.352;2023-03-04T04:35:50;94688.38;;;5.51;78.25
56831;BME280;42713;42.676;23.352;2023-03-04T04:38:16;94690.00;;;5.45;78.42
56831;BME280;42713;42.676;23.352;2023-03-04T04:40:41;94686.03;;;5.42;79.31
56831;BME280;42713;42.676;23.352;2023-03-04T04:43:07;94681.06;;;5.41;79.75
56831;BME280;42713;42.676;23.352;2023-03-04T04:45:33;94690.63;;;5.40;79.40
56831;BME280;42713;42.676;23.352;2023-03-04T04:47:59;94682.47;;;5.37;79.76
56831;BME280;42713;42.676;23.352;2023-03-04T04:50:25;94684.88;;;5.38;79.38
56831;BME280;42713;42.676;23.352;2023-03-04T04:52:51;94691.63;;;5.39;78.89
56831;BME280;42713;42.676;23.352;2023-03-04T04:55:16;94688.47;;;5.37;78.98
56831;BME280;42713;42.676;23.352;2023-03-04T04:57:42;94693.44;;;5.39;78.90
56831;BME280;42713;42.676;23.352;2023-03-04T05:00:08;94696.69;;;5.34;78.74
56831;BME280;42713;42.676;23.352;2023-03-04T05:02:34;94703.09;;;5.32;78.77
56831;BME280;42713;42.676;23.352;2023-03-04T05:05:04;94700.31;;;5.26;78.82
56831;BME280;42713;42.676;23.352;2023-03-04T05:07:30;94699.94;;;5.23;78.77
56831;BME280;42713;42.676;23.352;2023-03-04T05:09:55;94704.91;;;5.24;78.87
56831;BME280;42713;42.676;23.352;2023-03-04T05:12:20;94713.75;;;5.23;78.95
56831;BME280;42713;42.676;23.352;2023-03-04T05:14:46;94720.91;;;5.28;79.50
56831;BME280;42713;42.676;23.352;2023-03-04T05:17:11;94718.50;;;5.26;79.24
56831;BME280;42713;42.676;23.352;2023-03-04T05:19:37;94717.09;;;5.30;79.98
56831;BME280;42713;42.676;23.352;2023-03-04T05:22:02;94719.69;;;5.30;79.03
56831;BME280;42713;42.676;23.352;2023-03-04T05:24:28;94713.91;;;5.28;79.17
56831;BME280;42713;42.676;23.352;2023-03-04T05:26:53;94715.75;;;5.21;79.22
56831;BME280;42713;42.676;23.352;2023-03-04T05:29:19;94711.13;;;5.23;78.91
56831;BME280;42713;42.676;23.352;2023-03-04T05:31:44;94728.88;;;5.26;79.67
56831;BME280;42713;42.676;23.352;2023-03-04T05:34:10;94726.09;;;5.28;79.83
56831;BME280;42713;42.676;23.352;2023-03-04T05:36:35;94737.03;;;5.30;79.85
56831;BME280;42713;42.676;23.352;2023-03-04T05:39:01;94723.06;;;5.31;79.84
56831;BME280;42713;42.676;23.352;2023-03-04T05:41:26;94725.47;;;5.33;80.04
56831;BME280;42713;42.676;23.352;2023-03-04T05:43:52;94729.44;;;5.35;79.88
56831;BME280;42713;42.676;23.352;2023-03-04T05:46:18;94729.81;;;5.39;80.48
56831;BME280;42713;42.676;23.352;2023-03-04T05:48:50;94733.41;;;5.38;80.18
56831;BME280;42713;42.676;23.352;2023-03-04T05:51:17;94734.84;;;5.34;80.55
56831;BME280;42713;42.676;23.352;2023-03-04T05:53:42;94738.38;;;5.39;80.39
56831;BME280;42713;42.676;23.352;2023-03-04T05:56:11;94739.19;;;5.40;81.44
56831;BME280;42713;42.676;23.352;2023-03-04T05:58:37;94733.38;;;5.44;81.72
56831;BME280;42713;42.676;23.352;2023-03-04T06:01:03;94741.53;;;5.48;81.34
56831;BME280;42713;42.676;23.352;2023-03-04T06:03:29;94744.31;;;5.53;81.08
56831;BME280;42713;42.676;23.352;2023-03-04T06:05:54;94742.75;;;5.52;80.26
56831;BME280;42713;42.676;23.352;2023-03-04T06:08:20;94750.31;;;5.54;80.93
56831;BME280;42713;42.676;23.352;2023-03-04T06:10:45;94749.53;;;5.53;81.75
56831;BME280;42713;42.676;23.352;2023-03-04T06:13:11;94747.50;;;5.55;81.94
56831;BME280;42713;42.676;23.352;2023-03-04T06:15:38;94750.91;;;5.56;81.80
56831;BME280;42713;42.676;23.352;2023-03-04T06:18:04;94753.28;;;5.57;82.04
56831;BME280;42713;42.676;23.352;2023-03-04T06:20:30;94748.47;;;5.61;82.14
56831;BME280;42713;42.676;23.352;2023-03-04T06:22:55;94749.28;;;5.61;81.99
56831;BME280;42713;42.676;23.352;2023-03-04T06:25:21;94754.84;;;5.65;82.07
56831;BME280;42713;42.676;23.352;2023-03-04T06:27:46;94755.84;;;5.64;82.41
56831;BME280;42713;42.676;23.352;2023-03-04T06:30:12;94754.41;;;5.68;82.48
56831;BME280;42713;42.676;23.352;2023-03-04T06:32:38;94750.78;;;5.69;82.28
56831;BME280;42713;42.676;23.352;2023-03-04T06:35:05;94759.56;;;5.75;81.57
56831;BME280;42713;42.676;23.352;2023-03-04T06:37:31;94761.53;;;5.80;81.96
56831;BME280;42713;42.676;23.352;2023-03-04T06:39:56;94748.13;;;5.83;82.32
56831;BME280;42713;42.676;23.352;2023-03-04T06:42:22;94752.28;;;5.90;81.99
56831;BME280;42713;42.676;23.352;2023-03-04T06:44:48;94762.81;;;5.96;81.31
56831;BME280;42713;42.676;23.352;2023-03-04T06:47:13;94760.41;;;6.01;80.88
56831;BME280;42713;42.676;23.352;2023-03-04T06:49:39;94762.56;;;6.04;80.08
56831;BME280;42713;42.676;23.352;2023-03-04T06:52:04;94766.72;;;6.12;80.31
56831;BME280;42713;42.676;23.352;2023-03-04T06:54:30;94767.91;;;6.16;79.62
56831;BME280;42713;42.676;23.352;2023-03-04T06:56:55;94769.28;;;6.18;78.90
56831;BME280;42713;42.676;23.352;2023-03-04T06:59:22;94767.47;;;6.19;78.62
56831;BME280;42713;42.676;23.352;2023-03-04T07:01:47;94774.63;;;6.23;77.85
56831;BME280;42713;42.676;23.352;2023-03-04T07:04:13;94768.22;;;6.26;78.61
56831;BME280;42713;42.676;23.352;2023-03-04T07:06:38;94766.16;;;6.28;77.91
56831;BME280;42713;42.676;23.352;2023-03-04T07:09:04;94778.34;;;6.34;78.20
56831;BME280;42713;42.676;23.352;2023-03-04T07:11:30;94777.34;;;6.35;77.16
56831;BME280;42713;42.676;23.352;2023-03-04T07:13:55;94769.63;;;6.22;76.29
56831;BME280;42713;42.676;23.352;2023-03-04T07:16:21;94778.03;;;6.24;77.26
56831;BME280;42713;42.676;23.352;2023-03-04T07:18:47;94775.78;;;6.28;77.58
56831;BME280;42713;42.676;23.352;2023-03-04T07:21:14;94776.97;;;6.32;77.14
56831;BME280;42713;42.676;23.352;2023-03-04T07:23:40;94775.63;;;6.22;76.91
56831;BME280;42713;42.676;23.352;2023-03-04T07:26:06;94781.22;;;6.26;76.19
56831;BME280;42713;42.676;23.352;2023-03-04T07:28:32;94780.53;;;6.12;75.24
56831;BME280;42713;42.676;23.352;2023-03-04T07:31:10;94774.47;;;6.18;75.33
56831;BME280;42713;42.676;23.352;2023-03-04T07:33:36;94771.50;;;6.15;75.05
56831;BME280;42713;42.676;23.352;2023-03-04T07:36:02;94771.00;;;6.25;75.71
56831;BME280;42713;42.676;23.352;2023-03-04T07:38:27;94787.78;;;6.29;74.61
56831;BME280;42713;42.676;23.352;2023-03-04T07:40:57;94777.50;;;6.15;74.25
56831;BME280;42713;42.676;23.352;2023-03-04T07:43:23;94779.94;;;6.10;73.97
56831;BME280;42713;42.676;23.352;2023-03-04T07:45:48;94780.09;;;6.15;74.39
56831;BME280;42713;42.676;23.352;2023-03-04T07:48:15;94782.28;;;6.18;73.90
56831;BME280;42713;42.676;23.352;2023-03-04T07:50:40;94772.28;;;6.15;74.76
56831;BME280;42713;42.676;23.352;2023-03-04T07:53:05;94768.22;;;6.26;74.18
56831;BME280;42713;42.676;23.352;2023-03-04T07:55:31;94775.09;;;6.39;75.29
56831;BME280;42713;42.676;23.352;2023-03-04T07:57:57;94777.66;;;6.46;74.98
56831;BME280;42713;42.676;23.352;2023-03-04T08:00:22;94770.34;;;6.54;75.41
56831;BME280;42713;42.676;23.352;2023-03-04T08:02:48;94773.41;;;6.70;77.32
56831;BME280;42713;42.676;23.352;2023-03-04T08:05:14;94769.06;;;6.82;76.98
56831;BME280;42713;42.676;23.352;2023-03-04T08:07:40;94761.41;;;6.88;76.46
56831;BME280;42713;42.676;23.352;2023-03-04T08:10:06;94767.91;;;6.97;76.76
56831;BME280;42713;42.676;23.352;2023-03-04T08:12:33;94772.50;;;7.13;78.39
56831;BME280;42713;42.676;23.352;2023-03-04T08:14:59;94764.03;;;7.18;76.78
56831;BME280;42713;42.676;23.352;2023-03-04T08:17:24;94769.41;;;7.23;76.31
56831;BME280;42713;42.676;23.352;2023-03-04T08:19:51;94758.75;;;7.25;74.68
56831;BME280;42713;42.676;23.352;2023-03-04T08:22:17;94766.34;;;7.26;73.29
56831;BME280;42713;42.676;23.352;2023-03-04T08:24:42;94769.97;;;7.25;73.14
56831;BME280;42713;42.676;23.352;2023-03-04T08:27:08;94764.91;;;7.30;74.68
56831;BME280;42713;42.676;23.352;2023-03-04T08:29:33;94763.66;;;7.33;74.92
56831;BME280;42713;42.676;23.352;2023-03-04T08:31:59;94764.47;;;7.34;74.18
56831;BME280;42713;42.676;23.352;2023-03-04T08:34:27;94773.00;;;7.41;75.57
56831;BME280;42713;42.676;23.352;2023-03-04T08:36:53;94772.75;;;7.42;74.12
56831;BME280;42713;42.676;23.352;2023-03-04T08:39:19;94761.31;;;7.43;74.18
56831;BME280;42713;42.676;23.352;2023-03-04T08:41:46;94760.66;;;7.48;73.99
56831;BME280;42713;42.676;23.352;2023-03-04T08:44:12;94762.84;;;7.51;73.62
56831;BME280;42713;42.676;23.352;2023-03-04T08:46:39;94761.00;;;7.52;74.22
56831;BME280;42713;42.676;23.352;2023-03-04T08:49:06;94758.88;;;7.60;73.43
56831;BME280;42713;42.676;23.352;2023-03-04T08:51:32;94759.81;;;7.66;73.08
56831;BME280;42713;42.676;23.352;2023-03-04T08:54:00;94748.94;;;7.69;73.14
56831;BME280;42713;42.676;23.352;2023-03-04T08:56:26;94746.47;;;7.74;74.70
56831;BME280;42713;42.676;23.352;2023-03-04T08:58:51;94754.75;;;7.83;73.34
56831;BME280;42713;42.676;23.352;2023-03-04T09:01:17;94758.63;;;7.92;72.88
56831;BME280;42713;42.676;23.352;2023-03-04T09:03:42;94750.81;;;7.92;71.20
56831;BME280;42713;42.676;23.352;2023-03-04T09:06:10;94750.56;;;7.94;72.03
56831;BME280;42713;42.676;23.352;2023-03-04T09:08:36;94748.66;;;8.01;72.01
56831;BME280;42713;42.676;23.352;2023-03-04T09:11:02;94742.66;;;8.01;71.29
56831;BME280;42713;42.676;23.352;2023-03-04T09:13:28;94746.63;;;8.03;70.20
56831;BME280;42713;42.676;23.352;2023-03-04T09:15:57;94748.22;;;8.04;71.10
56831;BME280;42713;42.676;23.352;2023-03-04T09:18:23;94738.22;;;8.13;70.39
56831;BME280;42713;42.676;23.352;2023-03-04T09:20:49;94736.66;;;8.12;71.18
56831;BME280;42713;42.676;23.352;2023-03-04T09:23:15;94732.78;;;8.26;70.09
56831;BME280;42713;42.676;23.352;2023-03-04T09:25:42;94728.72;;;8.31;72.04
56831;BME280;42713;42.676;23.352;2023-03-04T09:28:09;94728.25;;;8.46;74.37
56831;BME280;42713;42.676;23.352;2023-03-04T09:30:35;94728.03;;;8.59;72.45
56831;BME280;42713;42.676;23.352;2023-03-04T09:33:01;94727.00;;;8.72;70.95
56831;BME280;42713;42.676;23.352;2023-03-04T09:35:26;94720.63;;;8.80;68.73
56831;BME280;42713;42.676;23.352;2023-03-04T09:37:54;94717.75;;;8.93;67.60
56831;BME280;42713;42.676;23.352;2023-03-04T09:40:27;94711.16;;;9.02;67.05
56831;BME280;42713;42.676;23.352;2023-03-04T09:42:57;94722.50;;;9.08;66.30
56831;BME280;42713;42.676;23.352;2023-03-04T09:45:27;94719.78;;;9.03;64.51
56831;BME280;42713;42.676;23.352;2023-03-04T09:47:54;94716.81;;;8.99;66.10
56831;BME280;42713;42.676;23.352;2023-03-04T09:50:21;94717.47;;;9.07;65.78
56831;BME280;42713;42.676;23.352;2023-03-04T09:55:36;94712.63;;;8.98;67.71
56831;BME280;42713;42.676;23.352;2023-03-04T09:58:31;94712.75;;;9.03;67.28
56831;BME280;42713;42.676;23.352;2023-03-04T10:03:45;94705.69;;;9.04;68.86
56831;BME280;42713;42.676;23.352;2023-03-04T10:06:16;94702.16;;;9.10;70.26
56831;BME280;42713;42.676;23.352;2023-03-04T10:09:00;94697.25;;;9.14;68.25
56831;BME280;42713;42.676;23.352;2023-03-04T10:17:11;94691.00;;;9.44;72.71
56831;BME280;42713;42.676;23.352;2023-03-04T10:19:52;94688.66;;;9.01;66.26
56831;BME280;42713;42.676;23.352;2023-03-04T10:24:53;94685.97;;;9.25;65.54
56831;BME280;42713;42.676;23.352;2023-03-04T10:27:20;94674.31;;;9.33;65.19
56831;BME280;42713;42.676;23.352;2023-03-04T10:29:48;94676.00;;;9.39;64.04
56831;BME280;42713;42.676;23.352;2023-03-04T10:32:17;94672.38;;;9.40;63.32
56831;BME280;42713;42.676;23.352;2023-03-04T10:34:43;94666.91;;;9.42;62.53
56831;BME280;42713;42.676;23.352;2023-03-04T10:37:09;94659.38;;;9.45;63.51
56831;BME280;42713;42.676;23.352;2023-03-04T10:39:45;94657.53;;;9.46;63.18
56831;BME280;42713;42.676;23.352;2023-03-04T10:44:59;94641.16;;;9.33;63.60
56831;BME280;42713;42.676;23.352;2023-03-04T10:47:29;94645.56;;;9.33;62.65
56831;BME280;42713;42.676;23.352;2023-03-04T10:49:59;94644.97;;;9.43;63.58
56831;BME280;42713;42.676;23.352;2023-03-04T10:54:54;94644.41;;;9.58;64.04
56831;BME280;42713;42.676;23.352;2023-03-04T10:59:58;94632.75;;;9.65;62.44
56831;BME280;42713;42.676;23.352;2023-03-04T11:02:27;94633.56;;;9.66;62.52
56831;BME280;42713;42.676;23.352;2023-03-04T11:08:00;94618.31;;;9.63;66.17
56831;BME280;42713;42.676;23.352;2023-03-04T11:15:47;94608.84;;;9.57;66.64
56831;BME280;42713;42.676;23.352;2023-03-04T11:18:14;94609.00;;;9.67;66.24
56831;BME280;42713;42.676;23.352;2023-03-04T11:20:44;94600.13;;;9.68;64.78
56831;BME280;42713;42.676;23.352;2023-03-04T11:23:16;94595.28;;;9.60;62.78
56831;BME280;42713;42.676;23.352;2023-03-04T11:26:02;94590.53;;;9.57;63.29
56831;BME280;42713;42.676;23.352;2023-03-04T11:28:47;94587.91;;;9.57;62.53
56831;BME280;42713;42.676;23.352;2023-03-04T11:31:22;94585.38;;;9.62;62.27
56831;BME280;42713;42.676;23.352;2023-03-04T11:34:00;94580.22;;;9.67;62.94
56831;BME280;42713;42.676;23.352;2023-03-04T11:36:53;94579.56;;;9.77;63.37
56831;BME280;42713;42.676;23.352;2023-03-04T11:44:34;94566.88;;;9.86;61.84
56831;BME280;42713;42.676;23.352;2023-03-04T11:58:15;94560.13;;;9.90;61.63
56831;BME280;42713;42.676;23.352;2023-03-04T12:01:16;94551.44;;;9.84;61.22
56831;BME280;42713;42.676;23.352;2023-03-04T12:09:31;94549.56;;;9.62;61.69
56831;BME280;42713;42.676;23.352;2023-03-04T12:32:25;94529.69;;;9.84;62.05
56831;BME280;42713;42.676;23.352;2023-03-04T12:53:32;94503.13;;;9.92;62.42
56831;BME280;42713;42.676;23.352;2023-03-04T12:56:02;94496.00;;;9.87;60.53
56831;BME280;42713;42.676;23.352;2023-03-04T12:58:31;94499.94;;;9.90;60.65
56831;BME280;42713;42.676;23.352;2023-03-04T13:04:03;94496.94;;;9.98;60.87
56831;BME280;42713;42.676;23.352;2023-03-04T13:10:10;94494.19;;;9.88;61.39
56831;BME280;42713;42.676;23.352;2023-03-04T13:12:21;94482.19;;;9.92;60.66
56831;BME280;42713;42.676;23.352;2023-03-04T13:38:21;94469.41;;;10.18;63.22
56831;BME280;42713;42.676;23.352;2023-03-04T13:43:44;94462.81;;;10.15;62.57
56831;BME280;42713;42.676;23.352;2023-03-04T13:49:03;94458.09;;;10.12;62.08
56831;BME280;42713;42.676;23.352;2023-03-04T14:01:47;94442.41;;;10.12;62.10
56831;BME280;42713;42.676;23.352;2023-03-04T14:04:28;94446.34;;;10.15;62.04
56831;BME280;42713;42.676;23.352;2023-03-04T14:06:56;94439.28;;;10.15;62.18
56831;BME280;42713;42.676;23.352;2023-03-04T14:09:27;94441.66;;;10.17;61.46
56831;BME280;42713;42.676;23.352;2023-03-04T14:11:57;94441.66;;;10.17;61.72
56831;BME280;42713;42.676;23.352;2023-03-04T14:14:26;94441.41;;;10.18;61.82
56831;BME280;42713;42.676;23.352;2023-03-04T14:16:58;94433.84;;;10.22;61.94
56831;BME280;42713;42.676;23.352;2023-03-04T14:19:31;94430.44;;;10.21;62.11
56831;BME280;42713;42.676;23.352;2023-03-04T14:22:00;94430.94;;;10.18;61.13
56831;BME280;42713;42.676;23.352;2023-03-04T14:24:27;94429.66;;;10.21;61.23
56831;BME280;42713;42.676;23.352;2023-03-04T14:27:10;94422.41;;;10.28;64.60
56831;BME280;42713;42.676;23.352;2023-03-04T14:29:36;94422.41;;;10.28;61.53
56831;BME280;42713;42.676;23.352;2023-03-04T14:32:04;94424.56;;;10.36;62.80
56831;BME280;42713;42.676;23.352;2023-03-04T14:34:36;94423.06;;;10.40;61.43
56831;BME280;42713;42.676;23.352;2023-03-04T14:37:15;94419.69;;;10.45;61.60
56831;BME280;42713;42.676;23.352;2023-03-04T14:39:43;94416.59;;;10.48;61.81
56831;BME280;42713;42.676;23.352;2023-03-04T14:42:12;94411.34;;;10.48;59.86
56831;BME280;42713;42.676;23.352;2023-03-04T14:44:46;94417.34;;;10.49;61.41
56831;BME280;42713;42.676;23.352;2023-03-04T14:47:18;94406.41;;;10.52;63.00
56831;BME280;42713;42.676;23.352;2023-03-04T14:49:46;94409.28;;;10.50;61.67
56831;BME280;42713;42.676;23.352;2023-03-04T14:55:25;94392.44;;;10.41;60.29
56831;BME280;42713;42.676;23.352;2023-03-04T14:58:22;94392.25;;;10.48;59.78
56831;BME280;42713;42.676;23.352;2023-03-04T15:00:48;94393.28;;;10.47;61.38
56831;BME280;42713;42.676;23.352;2023-03-04T15:03:28;94391.91;;;10.39;61.47
56831;BME280;42713;42.676;23.352;2023-03-04T15:05:54;94396.00;;;10.35;61.57
56831;BME280;42713;42.676;23.352;2023-03-04T15:08:33;94394.41;;;10.34;59.59
56831;BME280;42713;42.676;23.352;2023-03-04T15:11:01;94387.13;;;10.36;61.08
56831;BME280;42713;42.676;23.352;2023-03-04T15:13:46;94393.09;;;10.31;60.79
56831;BME280;42713;42.676;23.352;2023-03-04T15:16:14;94385.22;;;10.26;60.81
56831;BME280;42713;42.676;23.352;2023-03-04T15:19:28;94382.34;;;10.27;61.52
56831;BME280;42713;42.676;23.352;2023-03-04T15:22:11;94383.63;;;10.25;62.26
56831;BME280;42713;42.676;23.352;2023-03-04T15:24:37;94382.31;;;10.22;61.51
56831;BME280;42713;42.676;23.352;2023-03-04T15:27:02;94379.91;;;10.21;62.49
56831;BME280;42713;42.676;23.352;2023-03-04T15:29:31;94372.88;;;10.21;62.57
56831;BME280;42713;42.676;23.352;2023-03-04T15:31:57;94372.22;;;10.09;61.88
56831;BME280;42713;42.676;23.352;2023-03-04T15:34:22;94369.41;;;10.16;60.84